sensor_id;sensor_type;location;lat;lon;timestamp;temperature;humidity
50969;DHT22;36982;51.474;7.228;2023-04-12T00:01:26;10.20;99.90
50969;DHT22;36982;51.474;7.228;2023-04-12T00:03:51;10.10;99.90
50969;DHT22;36982;51.474;7.228;2023-04-12T00:06:18;10.20;99.90
50969;DHT22;36982;51.474;7.228;2023-04-12T00:08:50;10.20;99.90
50969;DHT22;36982;51.474;7.228;2023-04-12T00:11:15;10.00;99.90
50969;DHT22;36982;51.474;7.228;2023-04-12T00:13:41;10.20;1.00
50969;DHT22;36982;51.474;7.228;2023-04-12T00:16:08;10.20;99.90
50969;DHT22;36982;51.474;7.228;2023-04-12T00:18:34;10.10;1.00
50969;DHT22;36982;51.474;7.228;2023-04-12T00:20:59;10.30;1.00
50969;DHT22;36982;51.474;7.228;2023-04-12T00:23:25;10.30;1.00
50969;DHT22;36982;51.474;7.228;2023-04-12T00:25:50;10.20;99.90
50969;DHT22;36982;51.474;7.228;2023-04-12T00:28:16;10.30;3.80
50969;DHT22;36982;51.474;7.228;2023-04-12T00:30:42;10.10;16.20
50969;DHT22;36982;51.474;7.228;2023-04-12T00:33:08;10.10;1.00
50969;DHT22;36982;51.474;7.228;2023-04-12T00:35:33;10.00;1.00
50969;DHT22;36982;51.474;7.228;2023-04-12T00:37:59;10.10;37.40
50969;DHT22;36982;51.474;7.228;2023-04-12T00:40:27;10.10;98.50
50969;DHT22;36982;51.474;7.228;2023-04-12T00:42:52;10.10;99.90
50969;DHT22;36982;51.474;7.228;2023-04-12T00:45:18;10.20;99.90
50969;DHT22;36982;51.474;7.228;2023-04-12T00:47:45;10.20;99.90
50969;DHT22;36982;51.474;7.228;2023-04-12T00:50:11;10.00;99.90
50969;DHT22;36982;51.474;7.228;2023-04-12T00:52:37;10.00;99.90
50969;DHT22;36982;51.474;7.228;2023-04-12T00:55:04;10.10;99.90
50969;DHT22;36982;51.474;7.228;2023-04-12T00:57:33;10.10;99.90
50969;DHT22;36982;51.474;7.228;2023-04-12T01:00:01;10.10;99.90
50969;DHT22;36982;51.474;7.228;2023-04-12T01:02:28;10.00;99.90
50969;DHT22;36982;51.474;7.228;2023-04-12T01:04:55;10.00;99.90
50969;DHT22;36982;51.474;7.228;2023-04-12T01:08:03;10.00;99.90
50969;DHT22;36982;51.474;7.228;2023-04-12T01:13:43;10.00;99.90
50969;DHT22;36982;51.474;7.228;2023-04-12T01:19:10;10.10;99.90
50969;DHT22;36982;51.474;7.228;2023-04-12T01:27:41;10.20;99.90
50969;DHT22;36982;51.474;7.228;2023-04-12T01:30:11;10.20;1.00
50969;DHT22;36982;51.474;7.228;2023-04-12T01:32:39;10.20;1.00
50969;DHT22;36982;51.474;7.228;2023-04-12T01:35:08;10.10;1.00
50969;DHT22;36982;51.474;7.228;2023-04-12T01:37:35;10.20;1.00
50969;DHT22;36982;51.474;7.228;2023-04-12T01:40:02;10.00;1.00
50969;DHT22;36982;51.474;7.228;2023-04-12T01:42:33;10.00;1.00
50969;DHT22;36982;51.474;7.228;2023-04-12T01:44:59;10.00;1.00
50969;DHT22;36982;51.474;7.228;2023-04-12T01:47:24;10.00;1.00
50969;DHT22;36982;51.474;7.228;2023-04-12T01:50:21;9.90;1.00
50969;DHT22;36982;51.474;7.228;2023-04-12T01:55:37;9.90;1.00
50969;DHT22;36982;51.474;7.228;2023-04-12T01:58:04;9.90;1.00
50969;DHT22;36982;51.474;7.228;2023-04-12T02:00:31;9.90;1.00
50969;DHT22;36982;51.474;7.228;2023-04-12T02:02:57;9.80;1.00
50969;DHT22;36982;51.474;7.228;2023-04-12T02:05:24;9.60;1.00
50969;DHT22;36982;51.474;7.228;2023-04-12T02:07:50;9.60;1.00
50969;DHT22;36982;51.474;7.228;2023-04-12T02:10:27;9.50;1.00
50969;DHT22;36982;51.474;7.228;2023-04-12T02:12:52;9.50;4.80
50969;DHT22;36982;51.474;7.228;2023-04-12T02:15:18;9.50;9.90
50969;DHT22;36982;51.474;7.228;2023-04-12T02:17:45;9.40;10.70
50969;DHT22;36982;51.474;7.228;2023-04-12T02:20:11;9.50;11.10
50969;DHT22;36982;51.474;7.228;2023-04-12T02:22:37;9.70;10.80
50969;DHT22;36982;51.474;7.228;2023-04-12T02:25:03;9.50;12.30
50969;DHT22;36982;51.474;7.228;2023-04-12T02:27:30;9.50;14.50
50969;DHT22;36982;51.474;7.228;2023-04-12T02:29:56;9.50;16.80
50969;DHT22;36982;51.474;7.228;2023-04-12T02:32:23;9.50;14.40
50969;DHT22;36982;51.474;7.228;2023-04-12T02:34:49;9.40;21.40
50969;DHT22;36982;51.474;7.228;2023-04-12T02:37:16;9.30;27.10
50969;DHT22;36982;51.474;7.228;2023-04-12T02:39:42;9.30;29.00
50969;DHT22;36982;51.474;7.228;2023-04-12T02:42:09;9.40;32.80
50969;DHT22;36982;51.474;7.228;2023-04-12T02:44:34;9.20;33.20
50969;DHT22;36982;51.474;7.228;2023-04-12T02:47:00;9.20;34.70
50969;DHT22;36982;51.474;7.228;2023-04-12T02:49:25;9.20;35.40
50969;DHT22;36982;51.474;7.228;2023-04-12T02:51:51;9.40;33.80
50969;DHT22;36982;51.474;7.228;2023-04-12T02:54:17;9.30;32.20
50969;DHT22;36982;51.474;7.228;2023-04-12T02:56:42;9.20;29.70
50969;DHT22;36982;51.474;7.228;2023-04-12T02:59:09;9.10;35.40
50969;DHT22;36982;51.474;7.228;2023-04-12T03:01:34;9.00;34.10
50969;DHT22;36982;51.474;7.228;2023-04-12T03:04:00;9.10;35.30
50969;DHT22;36982;51.474;7.228;2023-04-12T03:06:26;9.20;32.40
50969;DHT22;36982;51.474;7.228;2023-04-12T03:08:54;9.20;32.70
50969;DHT22;36982;51.474;7.228;2023-04-12T03:11:22;9.20;34.30
50969;DHT22;36982;51.474;7.228;2023-04-12T03:13:47;9.20;35.90
50969;DHT22;36982;51.474;7.228;2023-04-12T03:16:24;9.10;39.10
50969;DHT22;36982;51.474;7.228;2023-04-12T03:18:50;9.10;39.10
50969;DHT22;36982;51.474;7.228;2023-04-12T03:21:16;8.90;46.00
50969;DHT22;36982;51.474;7.228;2023-04-12T03:23:42;8.90;49.50
50969;DHT22;36982;51.474;7.228;2023-04-12T03:26:07;8.80;52.90
50969;DHT22;36982;51.474;7.228;2023-04-12T03:28:34;8.80;54.50
50969;DHT22;36982;51.474;7.228;2023-04-12T03:30:59;8.90;54.60
50969;DHT22;36982;51.474;7.228;2023-04-12T03:33:26;8.90;53.50
50969;DHT22;36982;51.474;7.228;2023-04-12T03:35:51;9.00;52.10
50969;DHT22;36982;51.474;7.228;2023-04-12T03:38:17;8.80;52.60
50969;DHT22;36982;51.474;7.228;2023-04-12T03:40:43;8.80;53.50
50969;DHT22;36982;51.474;7.228;2023-04-12T03:43:08;8.90;53.60
50969;DHT22;36982;51.474;7.228;2023-04-12T03:45:34;8.80;52.70
50969;DHT22;36982;51.474;7.228;2023-04-12T03:47:59;8.90;52.90
50969;DHT22;36982;51.474;7.228;2023-04-12T03:50:25;8.90;53.50
50969;DHT22;36982;51.474;7.228;2023-04-12T03:52:53;8.90;51.60
50969;DHT22;36982;51.474;7.228;2023-04-12T03:55:19;8.80;53.60
50969;DHT22;36982;51.474;7.228;2023-04-12T03:57:45;8.80;51.70
50969;DHT22;36982;51.474;7.228;2023-04-12T04:00:11;8.70;53.70
50969;DHT22;36982;51.474;7.228;2023-04-12T04:02:37;8.80;51.50
50969;DHT22;36982;51.474;7.228;2023-04-12T04:05:03;8.80;51.60
50969;DHT22;36982;51.474;7.228;2023-04-12T04:07:29;8.80;52.90
50969;DHT22;36982;51.474;7.228;2023-04-12T04:09:56;8.70;54.60
50969;DHT22;36982;51.474;7.228;2023-04-12T04:12:22;8.70;50.90
50969;DHT22;36982;51.474;7.228;2023-04-12T04:14:47;8.80;51.50
50969;DHT22;36982;51.474;7.228;2023-04-12T04:17:13;8.90;46.50
50969;DHT22;36982;51.474;7.228;2023-04-12T04:19:38;9.00;47.30
50969;DHT22;36982;51.474;7.228;2023-04-12T04:22:05;8.80;49.80
50969;DHT22;36982;51.474;7.228;2023-04-12T04:24:30;8.90;48.80
50969;DHT22;36982;51.474;7.228;2023-04-12T04:26:56;9.20;47.00
50969;DHT22;36982;51.474;7.228;2023-04-12T04:29:23;8.90;45.50
50969;DHT22;36982;51.474;7.228;2023-04-12T04:31:49;9.00;43.90
50969;DHT22;36982;51.474;7.228;2023-04-12T04:34:15;8.90;47.70
50969;DHT22;36982;51.474;7.228;2023-04-12T04:36:42;8.80;48.40
50969;DHT22;36982;51.474;7.228;2023-04-12T04:39:08;9.00;49.30
50969;DHT22;36982;51.474;7.228;2023-04-12T04:41:34;8.90;49.60
50969;DHT22;36982;51.474;7.228;2023-04-12T04:44:04;8.90;47.90
50969;DHT22;36982;51.474;7.228;2023-04-12T04:46:34;8.90;50.10
50969;DHT22;36982;51.474;7.228;2023-04-12T04:49:02;8.90;49.30
50969;DHT22;36982;51.474;7.228;2023-04-12T04:51:28;9.00;48.70
50969;DHT22;36982;51.474;7.228;2023-04-12T04:53:54;9.10;47.20
50969;DHT22;36982;51.474;7.228;2023-04-12T04:56:20;9.00;51.10
50969;DHT22;36982;51.474;7.228;2023-04-12T04:58:48;9.00;52.00
50969;DHT22;36982;51.474;7.228;2023-04-12T05:01:14;9.10;51.30
50969;DHT22;36982;51.474;7.228;2023-04-12T05:03:44;9.00;53.10
50969;DHT22;36982;51.474;7.228;2023-04-12T05:06:10;9.00;54.60
50969;DHT22;36982;51.474;7.228;2023-04-12T05:08:36;9.10;51.90
50969;DHT22;36982;51.474;7.228;2023-04-12T05:11:01;9.10;50.80
50969;DHT22;36982;51.474;7.228;2023-04-12T05:13:27;9.10;48.20
50969;DHT22;36982;51.474;7.228;2023-04-12T05:15:53;9.10;48.20
50969;DHT22;36982;51.474;7.228;2023-04-12T05:18:18;9.00;52.40
50969;DHT22;36982;51.474;7.228;2023-04-12T05:20:44;9.00;61.90
50969;DHT22;36982;51.474;7.228;2023-04-12T05:23:10;8.90;67.40
50969;DHT22;36982;51.474;7.228;2023-04-12T05:25:36;8.80;73.70
50969;DHT22;36982;51.474;7.228;2023-04-12T05:28:29;8.90;76.90
50969;DHT22;36982;51.474;7.228;2023-04-12T05:30:55;8.80;77.90
50969;DHT22;36982;51.474;7.228;2023-04-12T05:33:21;8.70;83.80
50969;DHT22;36982;51.474;7.228;2023-04-12T05:35:46;8.70;86.60
50969;DHT22;36982;51.474;7.228;2023-04-12T05:38:12;8.60;90.10
50969;DHT22;36982;51.474;7.228;2023-04-12T05:40:37;8.70;91.80
50969;DHT22;36982;51.474;7.228;2023-04-12T05:43:03;8.60;92.10
50969;DHT22;36982;51.474;7.228;2023-04-12T05:45:28;8.60;93.70
50969;DHT22;36982;51.474;7.228;2023-04-12T05:47:54;8.50;94.90
50969;DHT22;36982;51.474;7.228;2023-04-12T05:50:20;8.40;97.20
50969;DHT22;36982;51.474;7.228;2023-04-12T05:52:46;8.30;98.10
50969;DHT22;36982;51.474;7.228;2023-04-12T05:55:15;8.40;98.30
50969;DHT22;36982;51.474;7.228;2023-04-12T05:57:43;8.30;99.20
50969;DHT22;36982;51.474;7.228;2023-04-12T06:00:09;8.40;99.20
50969;DHT22;36982;51.474;7.228;2023-04-12T06:02:39;8.40;99.30
50969;DHT22;36982;51.474;7.228;2023-04-12T06:05:05;8.30;99.70
50969;DHT22;36982;51.474;7.228;2023-04-12T06:07:31;8.30;99.90
50969;DHT22;36982;51.474;7.228;2023-04-12T06:09:56;8.30;99.90
50969;DHT22;36982;51.474;7.228;2023-04-12T06:12:22;8.40;99.90
50969;DHT22;36982;51.474;7.228;2023-04-12T06:14:47;8.40;99.90
50969;DHT22;36982;51.474;7.228;2023-04-12T06:17:13;8.30;99.90
50969;DHT22;36982;51.474;7.228;2023-04-12T06:19:38;8.30;99.90
50969;DHT22;36982;51.474;7.228;2023-04-12T06:22:04;8.20;99.90
50969;DHT22;36982;51.474;7.228;2023-04-12T06:24:30;8.20;99.90
50969;DHT22;36982;51.474;7.228;2023-04-12T06:26:56;8.30;99.90
50969;DHT22;36982;51.474;7.228;2023-04-12T06:29:21;8.30;99.90
50969;DHT22;36982;51.474;7.228;2023-04-12T06:31:47;8.40;99.90
50969;DHT22;36982;51.474;7.228;2023-04-12T06:34:12;8.50;99.90
50969;DHT22;36982;51.474;7.228;2023-04-12T06:36:38;8.40;99.90
50969;DHT22;36982;51.474;7.228;2023-04-12T06:39:06;8.50;99.90
50969;DHT22;36982;51.474;7.228;2023-04-12T06:41:32;8.50;99.90
50969;DHT22;36982;51.474;7.228;2023-04-12T06:43:58;8.60;99.90
50969;DHT22;36982;51.474;7.228;2023-04-12T06:46:27;8.40;99.90
50969;DHT22;36982;51.474;7.228;2023-04-12T06:48:53;8.40;99.90
50969;DHT22;36982;51.474;7.228;2023-04-12T06:51:19;8.40;99.90
50969;DHT22;36982;51.474;7.228;2023-04-12T06:53:44;8.50;99.90
50969;DHT22;36982;51.474;7.228;2023-04-12T06:56:10;8.60;99.90
50969;DHT22;36982;51.474;7.228;2023-04-12T06:58:35;8.70;99.90
50969;DHT22;36982;51.474;7.228;2023-04-12T07:01:05;8.80;99.90
50969;DHT22;36982;51.474;7.228;2023-04-12T07:03:31;8.80;99.90
50969;DHT22;36982;51.474;7.228;2023-04-12T07:05:58;8.90;99.90
50969;DHT22;36982;51.474;7.228;2023-04-12T07:08:25;8.80;99.90
50969;DHT22;36982;51.474;7.228;2023-04-12T07:10:54;8.80;99.90
50969;DHT22;36982;51.474;7.228;2023-04-12T07:13:20;8.80;99.90
50969;DHT22;36982;51.474;7.228;2023-04-12T07:15:47;8.80;99.90
50969;DHT22;36982;51.474;7.228;2023-04-12T07:18:13;8.80;99.90
50969;DHT22;36982;51.474;7.228;2023-04-12T07:20:39;8.80;99.90
50969;DHT22;36982;51.474;7.228;2023-04-12T07:23:04;8.90;99.90
50969;DHT22;36982;51.474;7.228;2023-04-12T07:25:30;8.70;99.90
50969;DHT22;36982;51.474;7.228;2023-04-12T07:27:56;9.00;99.90
50969;DHT22;36982;51.474;7.228;2023-04-12T07:30:21;9.10;99.90
50969;DHT22;36982;51.474;7.228;2023-04-12T07:32:47;9.30;99.90
50969;DHT22;36982;51.474;7.228;2023-04-12T07:35:13;9.20;99.90
50969;DHT22;36982;51.474;7.228;2023-04-12T07:37:39;9.30;99.90
50969;DHT22;36982;51.474;7.228;2023-04-12T07:40:05;9.30;99.90
50969;DHT22;36982;51.474;7.228;2023-04-12T07:42:31;9.30;99.90
50969;DHT22;36982;51.474;7.228;2023-04-12T07:44:57;9.40;99.90
50969;DHT22;36982;51.474;7.228;2023-04-12T07:47:22;9.50;99.90
50969;DHT22;36982;51.474;7.228;2023-04-12T07:49:48;9.60;99.90
50969;DHT22;36982;51.474;7.228;2023-04-12T07:52:14;9.80;99.90
50969;DHT22;36982;51.474;7.228;2023-04-12T07:54:39;9.80;99.90
50969;DHT22;36982;51.474;7.228;2023-04-12T07:57:07;9.90;99.90
50969;DHT22;36982;51.474;7.228;2023-04-12T07:59:33;9.80;99.90
50969;DHT22;36982;51.474;7.228;2023-04-12T08:01:59;9.90;99.90
50969;DHT22;36982;51.474;7.228;2023-04-12T08:04:25;10.00;99.90
50969;DHT22;36982;51.474;7.228;2023-04-12T08:06:53;9.90;99.90
50969;DHT22;36982;51.474;7.228;2023-04-12T08:09:18;9.90;99.90
50969;DHT22;36982;51.474;7.228;2023-04-12T08:11:44;10.00;99.90
50969;DHT22;36982;51.474;7.228;2023-04-12T08:14:10;10.00;99.90
50969;DHT22;36982;51.474;7.228;2023-04-12T08:16:35;10.20;99.90
50969;DHT22;36982;51.474;7.228;2023-04-12T08:19:01;10.00;99.40
50969;DHT22;36982;51.474;7.228;2023-04-12T08:21:26;10.00;99.60
50969;DHT22;36982;51.474;7.228;2023-04-12T08:23:52;10.00;99.10
50969;DHT22;36982;51.474;7.228;2023-04-12T08:26:18;10.10;98.80
50969;DHT22;36982;51.474;7.228;2023-04-12T08:28:43;10.20;99.10
50969;DHT22;36982;51.474;7.228;2023-04-12T08:31:09;10.20;99.10
50969;DHT22;36982;51.474;7.228;2023-04-12T08:33:35;10.10;98.80
50969;DHT22;36982;51.474;7.228;2023-04-12T08:36:01;10.20;99.30
50969;DHT22;36982;51.474;7.228;2023-04-12T08:38:27;10.00;99.50
50969;DHT22;36982;51.474;7.228;2023-04-12T08:40:52;10.00;99.90
50969;DHT22;36982;51.474;7.228;2023-04-12T08:43:18;9.90;99.90
50969;DHT22;36982;51.474;7.228;2023-04-12T08:45:44;9.90;99.90
50969;DHT22;36982;51.474;7.228;2023-04-12T08:48:10;10.10;99.90
50969;DHT22;36982;51.474;7.228;2023-04-12T08:50:36;10.20;99.90
50969;DHT22;36982;51.474;7.228;2023-04-12T08:53:01;10.20;99.90
50969;DHT22;36982;51.474;7.228;2023-04-12T08:55:27;10.20;99.90
50969;DHT22;36982;51.474;7.228;2023-04-12T08:57:54;10.40;99.90
50969;DHT22;36982;51.474;7.228;2023-04-12T09:00:21;10.40;99.90
50969;DHT22;36982;51.474;7.228;2023-04-12T09:02:46;10.50;99.90
50969;DHT22;36982;51.474;7.228;2023-04-12T09:05:13;10.40;99.90
50969;DHT22;36982;51.474;7.228;2023-04-12T09:07:40;10.50;99.90
50969;DHT22;36982;51.474;7.228;2023-04-12T09:10:06;10.30;99.90
50969;DHT22;36982;51.474;7.228;2023-04-12T09:12:32;10.40;99.90
50969;DHT22;36982;51.474;7.228;2023-04-12T09:15:07;10.30;99.90
50969;DHT22;36982;51.474;7.228;2023-04-12T09:17:34;10.20;99.90
50969;DHT22;36982;51.474;7.228;2023-04-12T09:20:02;10.30;99.90
50969;DHT22;36982;51.474;7.228;2023-04-12T09:22:36;10.50;99.90
50969;DHT22;36982;51.474;7.228;2023-04-12T09:25:03;10.90;99.90
50969;DHT22;36982;51.474;7.228;2023-04-12T09:27:29;10.80;99.90
50969;DHT22;36982;51.474;7.228;2023-04-12T09:30:08;10.80;99.90
50969;DHT22;36982;51.474;7.228;2023-04-12T09:32:33;10.90;99.90
50969;DHT22;36982;51.474;7.228;2023-04-12T09:34:59;10.90;99.90
50969;DHT22;36982;51.474;7.228;2023-04-12T09:37:27;10.80;99.90
50969;DHT22;36982;51.474;7.228;2023-04-12T09:40:03;10.90;99.90
50969;DHT22;36982;51.474;7.228;2023-04-12T09:42:30;10.80;99.90
50969;DHT22;36982;51.474;7.228;2023-04-12T09:44:59;10.80;99.90
50969;DHT22;36982;51.474;7.228;2023-04-12T09:47:46;10.90;99.90
50969;DHT22;36982;51.474;7.228;2023-04-12T09:50:23;11.00;99.90
50969;DHT22;36982;51.474;7.228;2023-04-12T09:52:49;11.20;99.90
50969;DHT22;36982;51.474;7.228;2023-04-12T09:55:15;11.20;99.90
50969;DHT22;36982;51.474;7.228;2023-04-12T09:57:43;11.20;99.90
50969;DHT22;36982;51.474;7.228;2023-04-12T10:00:13;11.30;99.90
50969;DHT22;36982;51.474;7.228;2023-04-12T10:02:42;11.10;98.90
50969;DHT22;36982;51.474;7.228;2023-04-12T10:05:12;10.90;99.90
50969;DHT22;36982;51.474;7.228;2023-04-12T10:07:42;11.10;99.90
50969;DHT22;36982;51.474;7.228;2023-04-12T10:10:15;11.10;99.90
50969;DHT22;36982;51.474;7.228;2023-04-12T10:12:43;11.20;99.90
50969;DHT22;36982;51.474;7.228;2023-04-12T10:15:10;11.40;99.90
50969;DHT22;36982;51.474;7.228;2023-04-12T10:20:10;12.00;99.90
50969;DHT22;36982;51.474;7.228;2023-04-12T10:22:48;12.30;99.90
50969;DHT22;36982;51.474;7.228;2023-04-12T10:25:16;12.60;99.90
50969;DHT22;36982;51.474;7.228;2023-04-12T10:27:43;12.80;97.80
50969;DHT22;36982;51.474;7.228;2023-04-12T10:30:30;12.60;95.00
50969;DHT22;36982;51.474;7.228;2023-04-12T10:35:28;13.00;92.50
50969;DHT22;36982;51.474;7.228;2023-04-12T10:38:00;13.30;91.50
50969;DHT22;36982;51.474;7.228;2023-04-12T10:40:31;13.40;86.80
50969;DHT22;36982;51.474;7.228;2023-04-12T10:45:47;14.00;77.50
50969;DHT22;36982;51.474;7.228;2023-04-12T10:48:51;14.00;66.60
50969;DHT22;36982;51.474;7.228;2023-04-12T10:51:22;13.90;61.60
50969;DHT22;36982;51.474;7.228;2023-04-12T10:53:53;14.00;66.10
50969;DHT22;36982;51.474;7.228;2023-04-12T10:56:43;14.00;52.50
50969;DHT22;36982;51.474;7.228;2023-04-12T10:59:13;13.70;68.20
50969;DHT22;36982;51.474;7.228;2023-04-12T11:01:40;13.70;61.70
50969;DHT22;36982;51.474;7.228;2023-04-12T11:04:13;13.70;66.60
50969;DHT22;36982;51.474;7.228;2023-04-12T11:14:35;12.00;93.60
50969;DHT22;36982;51.474;7.228;2023-04-12T11:19:43;11.60;98.70
50969;DHT22;36982;51.474;7.228;2023-04-12T11:22:11;11.60;98.70
50969;DHT22;36982;51.474;7.228;2023-04-12T11:24:38;11.40;99.00
50969;DHT22;36982;51.474;7.228;2023-04-12T11:27:04;11.40;99.40
50969;DHT22;36982;51.474;7.228;2023-04-12T11:29:30;11.30;99.90
50969;DHT22;36982;51.474;7.228;2023-04-12T11:31:57;11.30;99.90
50969;DHT22;36982;51.474;7.228;2023-04-12T11:34:23;11.30;98.80
50969;DHT22;36982;51.474;7.228;2023-04-12T11:36:53;11.30;99.10
50969;DHT22;36982;51.474;7.228;2023-04-12T11:39:19;11.50;99.90
50969;DHT22;36982;51.474;7.228;2023-04-12T11:41:48;11.50;99.70
50969;DHT22;36982;51.474;7.228;2023-04-12T11:44:15;11.60;97.90
50969;DHT22;36982;51.474;7.228;2023-04-12T11:46:46;11.50;97.20
50969;DHT22;36982;51.474;7.228;2023-04-12T11:49:19;11.60;94.80
50969;DHT22;36982;51.474;7.228;2023-04-12T11:51:45;11.70;95.80
50969;DHT22;36982;51.474;7.228;2023-04-12T11:54:12;11.80;94.20
50969;DHT22;36982;51.474;7.228;2023-04-12T11:56:38;11.70;91.30
50969;DHT22;36982;51.474;7.228;2023-04-12T11:59:04;11.70;84.50
50969;DHT22;36982;51.474;7.228;2023-04-12T12:01:30;11.50;77.10
50969;DHT22;36982;51.474;7.228;2023-04-12T12:04:00;11.30;73.80
50969;DHT22;36982;51.474;7.228;2023-04-12T12:06:26;11.30;70.20
50969;DHT22;36982;51.474;7.228;2023-04-12T12:08:52;11.30;71.40
50969;DHT22;36982;51.474;7.228;2023-04-12T12:11:22;11.40;66.10
50969;DHT22;36982;51.474;7.228;2023-04-12T12:13:49;11.50;60.50
50969;DHT22;36982;51.474;7.228;2023-04-12T12:16:15;11.60;55.80
50969;DHT22;36982;51.474;7.228;2023-04-12T12:18:42;11.50;25.70
50969;DHT22;36982;51.474;7.228;2023-04-12T12:21:10;11.70;23.90
50969;DHT22;36982;51.474;7.228;2023-04-12T12:23:36;11.80;23.70
50969;DHT22;36982;51.474;7.228;2023-04-12T12:26:02;12.00;12.20
50969;DHT22;36982;51.474;7.228;2023-04-12T12:28:28;12.20;5.50
50969;DHT22;36982;51.474;7.228;2023-04-12T12:30:57;12.20;1.00
50969;DHT22;36982;51.474;7.228;2023-04-12T12:33:23;12.20;1.00
50969;DHT22;36982;51.474;7.228;2023-04-12T12:35:56;12.30;1.00
50969;DHT22;36982;51.474;7.228;2023-04-12T12:38:22;12.10;1.00
50969;DHT22;36982;51.474;7.228;2023-04-12T12:40:48;12.10;1.00
50969;DHT22;36982;51.474;7.228;2023-04-12T12:43:18;12.30;1.00
50969;DHT22;36982;51.474;7.228;2023-04-12T12:45:45;12.50;1.00
50969;DHT22;36982;51.474;7.228;2023-04-12T12:48:11;12.90;1.00
50969;DHT22;36982;51.474;7.228;2023-04-12T12:50:37;12.90;1.00
50969;DHT22;36982;51.474;7.228;2023-04-12T12:53:03;12.80;1.00
50969;DHT22;36982;51.474;7.228;2023-04-12T12:55:32;12.70;1.00
50969;DHT22;36982;51.474;7.228;2023-04-12T12:57:58;12.70;1.00
50969;DHT22;36982;51.474;7.228;2023-04-12T13:00:26;12.80;1.00
50969;DHT22;36982;51.474;7.228;2023-04-12T13:02:52;13.00;1.00
50969;DHT22;36982;51.474;7.228;2023-04-12T13:05:19;13.00;99.90
50969;DHT22;36982;51.474;7.228;2023-04-12T13:07:45;13.10;99.90
50969;DHT22;36982;51.474;7.228;2023-04-12T13:10:11;13.10;1.00
50969;DHT22;36982;51.474;7.228;2023-04-12T13:12:37;13.10;1.00
50969;DHT22;36982;51.474;7.228;2023-04-12T13:15:03;13.40;1.00
50969;DHT22;36982;51.474;7.228;2023-04-12T13:17:29;13.60;99.90
50969;DHT22;36982;51.474;7.228;2023-04-12T13:19:55;13.70;99.90
50969;DHT22;36982;51.474;7.228;2023-04-12T13:22:21;13.80;99.90
50969;DHT22;36982;51.474;7.228;2023-04-12T13:24:47;13.90;99.90
50969;DHT22;36982;51.474;7.228;2023-04-12T13:27:13;14.10;99.90
50969;DHT22;36982;51.474;7.228;2023-04-12T13:29:39;13.90;99.90
50969;DHT22;36982;51.474;7.228;2023-04-12T13:32:05;13.80;99.90
50969;DHT22;36982;51.474;7.228;2023-04-12T13:34:31;13.70;99.90
50969;DHT22;36982;51.474;7.228;2023-04-12T13:36:57;13.40;99.90
50969;DHT22;36982;51.474;7.228;2023-04-12T13:39:23;13.30;99.90
50969;DHT22;36982;51.474;7.228;2023-04-12T13:41:49;13.30;99.90
50969;DHT22;36982;51.474;7.228;2023-04-12T13:44:15;13.20;99.90
50969;DHT22;36982;51.474;7.228;2023-04-12T13:46:41;13.10;99.90
50969;DHT22;36982;51.474;7.228;2023-04-12T13:49:06;13.20;99.90
50969;DHT22;36982;51.474;7.228;2023-04-12T13:51:32;13.40;99.90
50969;DHT22;36982;51.474;7.228;2023-04-12T13:53:58;13.60;99.90
50969;DHT22;36982;51.474;7.228;2023-04-12T13:56:23;13.80;99.90
50969;DHT22;36982;51.474;7.228;2023-04-12T13:58:50;13.40;99.90
50969;DHT22;36982;51.474;7.228;2023-04-12T14:01:15;13.30;99.90
50969;DHT22;36982;51.474;7.228;2023-04-12T14:03:41;13.30;99.90
50969;DHT22;36982;51.474;7.228;2023-04-12T14:06:07;13.50;99.90
50969;DHT22;36982;51.474;7.228;2023-04-12T14:08:33;13.40;99.90
50969;DHT22;36982;51.474;7.228;2023-04-12T14:10:59;13.50;99.90
50969;DHT22;36982;51.474;7.228;2023-04-12T14:13:25;13.40;79.70
50969;DHT22;36982;51.474;7.228;2023-04-12T14:15:52;13.50;50.80
50969;DHT22;36982;51.474;7.228;2023-04-12T14:18:19;13.50;1.00
50969;DHT22;36982;51.474;7.228;2023-04-12T14:20:47;13.50;1.00
50969;DHT22;36982;51.474;7.228;2023-04-12T14:23:17;13.50;1.00
50969;DHT22;36982;51.474;7.228;2023-04-12T14:25:42;13.50;1.00
50969;DHT22;36982;51.474;7.228;2023-04-12T14:28:08;13.40;1.00
50969;DHT22;36982;51.474;7.228;2023-04-12T14:30:33;13.30;1.00
50969;DHT22;36982;51.474;7.228;2023-04-12T14:32:59;12.80;99.90
50969;DHT22;36982;51.474;7.228;2023-04-12T14:35:25;12.20;99.90
50969;DHT22;36982;51.474;7.228;2023-04-12T14:37:50;11.70;1.00
50969;DHT22;36982;51.474;7.228;2023-04-12T14:40:17;11.30;1.00
50969;DHT22;36982;51.474;7.228;2023-04-12T14:42:43;11.00;1.00
50969;DHT22;36982;51.474;7.228;2023-04-12T14:45:09;10.80;25.30
50969;DHT22;36982;51.474;7.228;2023-04-12T14:47:35;10.60;43.90
50969;DHT22;36982;51.474;7.228;2023-04-12T14:50:02;10.50;50.90
50969;DHT22;36982;51.474;7.228;2023-04-12T14:52:27;10.50;34.50
50969;DHT22;36982;51.474;7.228;2023-04-12T14:54:53;10.20;43.10
50969;DHT22;36982;51.474;7.228;2023-04-12T14:57:19;10.00;40.90
50969;DHT22;36982;51.474;7.228;2023-04-12T14:59:44;9.90;48.70
50969;DHT22;36982;51.474;7.228;2023-04-12T15:02:12;9.90;64.50
50969;DHT22;36982;51.474;7.228;2023-04-12T15:04:38;10.00;77.70
50969;DHT22;36982;51.474;7.228;2023-04-12T15:07:03;10.10;82.70
50969;DHT22;36982;51.474;7.228;2023-04-12T15:09:29;10.20;90.20
50969;DHT22;36982;51.474;7.228;2023-04-12T15:11:55;10.20;86.20
50969;DHT22;36982;51.474;7.228;2023-04-12T15:14:24;10.20;86.50
50969;DHT22;36982;51.474;7.228;2023-04-12T15:16:50;10.20;82.30
50969;DHT22;36982;51.474;7.228;2023-04-12T15:19:16;10.20;87.10
50969;DHT22;36982;51.474;7.228;2023-04-12T15:21:44;10.20;89.70
50969;DHT22;36982;51.474;7.228;2023-04-12T15:24:11;10.40;83.70
50969;DHT22;36982;51.474;7.228;2023-04-12T15:26:36;10.40;70.30
50969;DHT22;36982;51.474;7.228;2023-04-12T15:29:02;10.40;74.10
50969;DHT22;36982;51.474;7.228;2023-04-12T15:31:28;10.30;68.10
50969;DHT22;36982;51.474;7.228;2023-04-12T15:33:54;10.20;62.60
50969;DHT22;36982;51.474;7.228;2023-04-12T15:36:20;10.10;67.10
50969;DHT22;36982;51.474;7.228;2023-04-12T15:38:46;10.00;59.60
50969;DHT22;36982;51.474;7.228;2023-04-12T15:41:12;10.00;66.60
50969;DHT22;36982;51.474;7.228;2023-04-12T15:43:37;9.90;66.60
50969;DHT22;36982;51.474;7.228;2023-04-12T15:46:03;9.80;60.00
50969;DHT22;36982;51.474;7.228;2023-04-12T15:48:29;9.90;53.90
50969;DHT22;36982;51.474;7.228;2023-04-12T15:50:55;9.70;39.30
50969;DHT22;36982;51.474;7.228;2023-04-12T15:53:23;9.50;34.30
50969;DHT22;36982;51.474;7.228;2023-04-12T15:55:49;9.50;35.50
50969;DHT22;36982;51.474;7.228;2023-04-12T15:58:18;9.50;35.90
50969;DHT22;36982;51.474;7.228;2023-04-12T16:00:44;9.50;38.20
50969;DHT22;36982;51.474;7.228;2023-04-12T16:03:09;9.60;45.10
50969;DHT22;36982;51.474;7.228;2023-04-12T16:05:37;9.60;23.00
50969;DHT22;36982;51.474;7.228;2023-04-12T16:08:02;9.70;17.60
50969;DHT22;36982;51.474;7.228;2023-04-12T16:10:28;9.70;23.30
50969;DHT22;36982;51.474;7.228;2023-04-12T16:12:55;9.90;10.10